Time;durP1;ratioP1;P1;durP2;ratioP2;P2;SDS_P1;SDS_P2;PMS_P1;PMS_P2;Temp;Humidity;BMP_temperature;BMP_pressure;BME280_temperature;BME280_humidity;BME280_pressure;Samples;Min_cycle;Max_cycle;Signal;HPM_P1;HPM_P2
2022/09/25 00:00:13;;;;;;;;;;;;;;;19.68;100.00;98715.84;5052473;28;19955;-45
2022/09/25 00:02:39;;;;;;;;;;;;;;;19.73;100.00;98716.38;5052436;28;19948;-45
2022/09/25 00:05:04;;;;;;;;;;;;;;;19.72;100.00;98719.09;5053014;28;19943;-45
2022/09/25 00:07:29;;;;;;;;;;;;;;;19.70;100.00;98726.22;5052185;28;19913;-45
2022/09/25 00:09:54;;;;;;;;;;;;;;;19.58;100.00;98733.16;5051849;28;19920;-45
2022/09/25 00:12:20;;;;;;;;;;;;;;;19.95;100.00;98712.97;5051819;28;19917;-45
2022/09/25 00:14:48;;;;;;;;;;;;;;;20.04;100.00;98722.75;5067040;28;19923;-44
2022/09/25 00:17:13;;;;;;;;;;;;;;;19.99;100.00;98727.50;5071978;28;20007;-44
2022/09/25 00:19:51;;;;;;;;;;;;;;;20.00;100.00;98721.34;5067773;28;20452;-44
2022/09/25 00:22:16;;;;;;;;;;;;;;;20.08;100.00;98719.91;5068028;28;19923;-44
2022/09/25 00:24:42;;;;;;;;;;;;;;;20.11;100.00;98719.66;5062946;28;19996;-44
2022/09/25 00:27:07;;;;;;;;;;;;;;;20.08;100.00;98714.69;5052124;28;19963;-44
2022/09/25 00:29:33;;;;;;;;;;;;;;;20.14;100.00;98714.19;5056074;28;20540;-44
2022/09/25 00:31:58;;;;;;;;;;;;;;;20.16;100.00;98715.78;5046613;28;19920;-44
2022/09/25 00:34:23;;;;;;;;;;;;;;;20.30;100.00;98709.50;5057155;28;20000;-44
2022/09/25 00:36:48;;;;;;;;;;;;;;;20.22;100.00;98710.06;5069248;28;19921;-44
2022/09/25 00:39:14;;;;;;;;;;;;;;;19.98;100.00;98707.53;5053506;28;20402;-45
2022/09/25 00:41:39;;;;;;;;;;;;;;;19.71;100.00;98714.84;5050056;28;20400;-44
2022/09/25 00:44:24;;;;;;;;;;;;;;;19.81;100.00;98707.97;5050649;28;19970;-44
2022/09/25 00:46:49;;;;;;;;;;;;;;;19.52;100.00;98713.53;5069463;28;19927;-44
2022/09/25 00:49:16;;;;;;;;;;;;;;;19.62;100.00;98709.31;5044470;28;19916;-45
2022/09/25 00:51:45;;;;;;;;;;;;;;;19.43;100.00;98715.06;5056795;28;19965;-44
2022/09/25 00:54:14;;;;;;;;;;;;;;;19.20;100.00;98719.34;5069466;28;20369;-44
2022/09/25 00:56:40;;;;;;;;;;;;;;;19.35;100.00;98713.94;5039598;28;19917;-44
2022/09/25 00:59:06;;;;;;;;;;;;;;;19.24;100.00;98714.72;5033288;28;19921;-44
2022/09/25 01:01:31;;;;;;;;;;;;;;;19.05;100.00;98720.44;5033450;28;19970;-45
2022/09/25 01:03:57;;;;;;;;;;;;;;;18.63;100.00;98725.06;5055407;28;20409;-44
2022/09/25 01:06:23;;;;;;;;;;;;;;;18.65;100.00;98723.19;5033329;28;19924;-44
2022/09/25 01:08:48;;;;;;;;;;;;;;;18.25;100.00;98725.94;5053552;28;19920;-44
2022/09/25 01:11:14;;;;;;;;;;;;;;;18.52;100.00;98732.81;5070139;28;19973;-44
2022/09/25 01:13:40;;;;;;;;;;;;;;;18.81;100.00;98729.03;5033081;28;20007;-44
2022/09/25 01:16:07;;;;;;;;;;;;;;;18.82;100.00;98735.09;5050599;28;19917;-44
2022/09/25 01:18:39;;;;;;;;;;;;;;;18.79;100.00;98724.88;5066463;28;20015;-44
2022/09/25 01:21:10;;;;;;;;;;;;;;;19.00;100.00;98732.97;5044991;28;19913;-44
2022/09/25 01:23:53;;;;;;;;;;;;;;;18.81;100.00;98720.38;5054639;28;19924;-44
2022/09/25 01:26:37;;;;;;;;;;;;;;;18.91;100.00;98723.19;5069708;28;19913;-44
2022/09/25 01:29:07;;;;;;;;;;;;;;;18.62;100.00;98723.41;5050528;28;20531;-44
2022/09/25 01:31:35;;;;;;;;;;;;;;;18.50;100.00;98724.28;5038321;28;19999;-44
2022/09/25 01:34:09;;;;;;;;;;;;;;;17.60;100.00;98731.97;5050412;28;20301;-44
2022/09/25 01:36:35;;;;;;;;;;;;;;;18.04;100.00;98728.25;5031619;28;20012;-44
2022/09/25 01:39:09;;;;;;;;;;;;;;;17.47;100.00;98739.75;5032301;28;20015;-44
2022/09/25 01:41:39;;;;;;;;;;;;;;;17.29;100.00;98730.53;5056464;28;20271;-45
2022/09/25 01:44:08;;;;;;;;;;;;;;;17.70;100.00;98742.63;5038467;28;20015;-44
2022/09/25 01:46:34;;;;;;;;;;;;;;;17.18;100.00;98735.56;5069810;28;19916;-44
2022/09/25 01:49:08;;;;;;;;;;;;;;;17.51;100.00;98738.59;5051328;28;19920;-44
2022/09/25 01:51:35;;;;;;;;;;;;;;;17.70;100.00;98742.63;5064288;28;19924;-44
2022/09/25 01:54:06;;;;;;;;;;;;;;;17.56;100.00;98749.56;5036553;28;19924;-44
2022/09/25 01:56:38;;;;;;;;;;;;;;;18.01;100.00;98745.84;5039764;28;20382;-44
2022/09/25 01:59:04;;;;;;;;;;;;;;;18.24;100.00;98742.50;5050213;28;20007;-44
2022/09/25 02:01:30;;;;;;;;;;;;;;;18.51;100.00;98736.38;5050261;28;20038;-44
2022/09/25 02:03:56;;;;;;;;;;;;;;;18.34;100.00;98733.16;5031336;28;20023;-44
2022/09/25 02:06:22;;;;;;;;;;;;;;;18.03;100.00;98736.16;5048369;28;19921;-44
2022/09/25 02:08:54;;;;;;;;;;;;;;;17.75;100.00;98737.94;5066148;28;20343;-45
2022/09/25 02:11:20;;;;;;;;;;;;;;;18.32;100.00;98736.81;5044310;28;19923;-44
2022/09/25 02:13:48;;;;;;;;;;;;;;;18.38;100.00;98737.22;5051038;28;19916;-44
2022/09/25 02:16:18;;;;;;;;;;;;;;;17.52;100.00;98742.06;5051055;28;20003;-45
2022/09/25 02:21:27;;;;;;;;;;;;;;;17.79;100.00;98734.22;5041520;28;19966;-45
2022/09/25 02:23:56;;;;;;;;;;;;;;;18.11;100.00;98739.91;5049787;28;19917;-45
2022/09/25 02:26:27;;;;;;;;;;;;;;;18.44;100.00;98728.13;5050452;28;19917;-45
2022/09/25 02:28:53;;;;;;;;;;;;;;;18.41;100.00;98724.91;5052066;28;19916;-44
2022/09/25 02:31:18;;;;;;;;;;;;;;;17.89;100.00;98732.69;5038941;28;19917;-44
2022/09/25 02:33:43;;;;;;;;;;;;;;;17.82;100.00;98725.41;5035725;28;19956;-45
2022/09/25 02:36:15;;;;;;;;;;;;;;;18.30;100.00;98728.25;5059992;28;19923;-45
2022/09/25 02:38:40;;;;;;;;;;;;;;;17.53;100.00;98731.53;5035125;28;20035;-45
2022/09/25 02:41:13;;;;;;;;;;;;;;;17.83;100.00;98735.69;5047022;28;20697;-45
2022/09/25 02:43:39;;;;;;;;;;;;;;;17.54;100.00;98733.22;5038506;28;19919;-45
2022/09/25 02:46:11;;;;;;;;;;;;;;;17.93;100.00;98731.56;5066547;28;19916;-45
2022/09/25 02:48:44;;;;;;;;;;;;;;;18.15;100.00;98724.91;5054206;28;19938;-44
2022/09/25 02:51:36;;;;;;;;;;;;;;;18.31;100.00;98719.47;5053349;28;19939;-45
2022/09/25 02:54:05;;;;;;;;;;;;;;;18.30;100.00;98723.88;5063796;28;20291;-45
2022/09/25 02:56:32;;;;;;;;;;;;;;;18.35;100.00;98720.94;5060938;28;19916;-45
2022/09/25 02:58:58;;;;;;;;;;;;;;;18.26;100.00;98721.56;5034329;28;19964;-45
2022/09/25 03:01:24;;;;;;;;;;;;;;;18.68;100.00;98715.19;5054180;28;20004;-45
2022/09/25 03:03:50;;;;;;;;;;;;;;;18.54;100.00;98712.66;5054598;28;19999;-45
2022/09/25 03:06:15;;;;;;;;;;;;;;;18.64;100.00;98708.50;5034670;28;20182;-44
2022/09/25 03:08:45;;;;;;;;;;;;;;;18.16;100.00;98716.97;5053290;28;20389;-45
2022/09/25 03:11:11;;;;;;;;;;;;;;;18.17;100.00;98718.63;5048341;28;19923;-44
2022/09/25 03:13:36;;;;;;;;;;;;;;;18.31;100.00;98720.31;5070610;28;19917;-44
2022/09/25 03:16:04;;;;;;;;;;;;;;;18.69;100.00;98714.22;5072250;28;19939;-44
2022/09/25 03:18:30;;;;;;;;;;;;;;;18.35;100.00;98719.16;5054178;28;19920;-45
2022/09/25 03:20:55;;;;;;;;;;;;;;;18.48;100.00;98710.50;5066276;28;19913;-44
2022/09/25 03:23:20;;;;;;;;;;;;;;;18.55;100.00;98723.00;5055620;28;19916;-45
2022/09/25 03:25:46;;;;;;;;;;;;;;;18.93;100.00;98718.66;5053252;28;19917;-45
2022/09/25 03:28:12;;;;;;;;;;;;;;;18.57;100.00;98715.09;5059733;28;19928;-45
2022/09/25 03:30:39;;;;;;;;;;;;;;;18.37;100.00;98722.50;5059857;28;19921;-45
2022/09/25 03:33:05;;;;;;;;;;;;;;;17.90;100.00;98723.97;5053712;28;19923;-45
2022/09/25 03:35:30;;;;;;;;;;;;;;;17.63;100.00;98733.53;5052223;28;20335;-45
2022/09/25 03:37:55;;;;;;;;;;;;;;;17.27;100.00;98732.38;5059899;28;19981;-44
2022/09/25 03:40:20;;;;;;;;;;;;;;;17.38;100.00;98736.88;5050912;28;19916;-44
2022/09/25 03:42:46;;;;;;;;;;;;;;;17.26;100.00;98741.13;5061523;28;20282;-44
2022/09/25 03:45:11;;;;;;;;;;;;;;;16.90;100.00;98737.28;5057990;28;19916;-44
2022/09/25 03:47:37;;;;;;;;;;;;;;;17.19;100.00;98737.22;5062056;28;20401;-45
2022/09/25 03:50:02;;;;;;;;;;;;;;;17.43;100.00;98738.28;5061774;28;20015;-44
2022/09/25 03:52:27;;;;;;;;;;;;;;;17.19;100.00;98730.25;5063522;28;19920;-44
2022/09/25 03:54:52;;;;;;;;;;;;;;;17.61;100.00;98730.19;5061293;28;19920;-45
2022/09/25 03:57:18;;;;;;;;;;;;;;;18.10;100.00;98722.59;5052400;28;19917;-45
2022/09/25 03:59:43;;;;;;;;;;;;;;;18.08;100.00;98723.63;5060284;28;19930;-45
2022/09/25 04:02:09;;;;;;;;;;;;;;;17.65;100.00;98736.88;5060463;28;19916;-45
2022/09/25 04:04:36;;;;;;;;;;;;;;;17.78;100.00;98722.13;5068078;28;19916;-45
2022/09/25 04:07:01;;;;;;;;;;;;;;;17.94;100.00;98730.59;5059816;28;19935;-44
2022/09/25 04:09:26;;;;;;;;;;;;;;;17.69;100.00;98722.72;5059807;28;19916;-45
2022/09/25 04:11:54;;;;;;;;;;;;;;;17.24;100.00;98720.41;5070890;28;19923;-45
2022/09/25 04:14:20;;;;;;;;;;;;;;;17.02;100.00;98733.94;5056643;28;19921;-45
2022/09/25 04:16:45;;;;;;;;;;;;;;;16.77;100.00;98733.75;5061066;28;20114;-45
2022/09/25 04:19:11;;;;;;;;;;;;;;;17.04;100.00;98726.88;5052473;28;19983;-45
2022/09/25 04:21:36;;;;;;;;;;;;;;;17.10;100.00;98730.84;5059717;28;19956;-46
2022/09/25 04:26:46;;;;;;;;;;;;;;;17.81;100.00;98727.13;5055165;28;20574;-44
2022/09/25 04:29:14;;;;;;;;;;;;;;;17.18;100.00;98723.41;5051764;28;19921;-45
2022/09/25 04:31:39;;;;;;;;;;;;;;;18.00;100.00;98720.72;5035224;28;19923;-45
2022/09/25 04:34:04;;;;;;;;;;;;;;;17.75;100.00;98722.31;5069476;28;20011;-45
2022/09/25 04:36:29;;;;;;;;;;;;;;;17.74;100.00;98720.63;5069767;28;19927;-44
2022/09/25 04:38:55;;;;;;;;;;;;;;;17.75;100.00;98724.94;5055371;28;19928;-45
2022/09/25 04:41:20;;;;;;;;;;;;;;;17.87;100.00;98711.13;5048008;28;19999;-44
2022/09/25 04:43:45;;;;;;;;;;;;;;;18.01;100.00;98702.38;5067366;28;20285;-45
2022/09/25 04:46:11;;;;;;;;;;;;;;;17.51;100.00;98715.16;5070601;28;20010;-45
2022/09/25 04:48:36;;;;;;;;;;;;;;;17.63;100.00;98712.69;5033710;28;19924;-45
2022/09/25 04:51:04;;;;;;;;;;;;;;;17.17;100.00;98716.50;5056787;28;19916;-45
2022/09/25 04:53:30;;;;;;;;;;;;;;;17.30;100.00;98716.56;5058394;28;19928;-44
2022/09/25 04:56:06;;;;;;;;;;;;;;;17.06;100.00;98718.94;5054737;28;20336;-44
2022/09/25 04:58:31;;;;;;;;;;;;;;;16.83;100.00;98728.19;5056858;28;20427;-45
2022/09/25 05:01:01;;;;;;;;;;;;;;;16.69;100.00;98737.66;5061435;28;19921;-45
2022/09/25 05:03:26;;;;;;;;;;;;;;;16.71;100.00;98729.75;5051266;28;19928;-44
2022/09/25 05:05:51;;;;;;;;;;;;;;;16.24;100.00;98742.13;5037284;28;19917;-45
2022/09/25 05:08:16;;;;;;;;;;;;;;;16.51;100.00;98743.97;5081441;28;19923;-46
2022/09/25 05:10:42;;;;;;;;;;;;;;;16.92;100.00;98735.41;5058176;28;19917;-44
2022/09/25 05:13:09;;;;;;;;;;;;;;;16.76;100.00;98727.69;5051066;28;19924;-45
2022/09/25 05:15:35;;;;;;;;;;;;;;;17.20;100.00;98721.53;5032913;28;19956;-45
2022/09/25 05:18:03;;;;;;;;;;;;;;;17.41;100.00;98732.31;5050828;28;19970;-45
2022/09/25 05:20:28;;;;;;;;;;;;;;;16.43;100.00;98738.41;5050275;28;20447;-45
2022/09/25 05:22:55;;;;;;;;;;;;;;;16.90;100.00;98738.13;5051058;28;19921;-45
2022/09/25 05:25:22;;;;;;;;;;;;;;;16.58;100.00;98740.09;5050502;28;19956;-45
2022/09/25 05:27:47;;;;;;;;;;;;;;;16.64;100.00;98742.28;5032801;28;20243;-45
2022/09/25 05:30:13;;;;;;;;;;;;;;;16.67;100.00;98744.72;5064462;28;19962;-45
2022/09/25 05:32:38;;;;;;;;;;;;;;;16.73;100.00;98739.13;5059501;28;19947;-45
2022/09/25 05:35:04;;;;;;;;;;;;;;;16.80;100.00;98739.63;5055593;28;19916;-45
2022/09/25 05:37:29;;;;;;;;;;;;;;;16.58;100.00;98744.44;5065330;28;19927;-45
2022/09/25 05:39:54;;;;;;;;;;;;;;;16.84;100.00;98740.28;5072773;28;19912;-45
2022/09/25 05:42:20;;;;;;;;;;;;;;;16.66;100.00;98737.00;5071051;28;20289;-45
2022/09/25 05:44:45;;;;;;;;;;;;;;;16.54;100.00;98742.97;5058483;28;20531;-45
2022/09/25 05:47:10;;;;;;;;;;;;;;;16.28;100.00;98745.34;5060905;28;19920;-45
2022/09/25 05:49:35;;;;;;;;;;;;;;;16.15;100.00;98744.41;5049351;28;19923;-44
2022/09/25 05:52:01;;;;;;;;;;;;;;;16.37;100.00;98752.59;5051392;28;19924;-45
2022/09/25 05:54:26;;;;;;;;;;;;;;;16.27;100.00;98751.47;5049865;28;19920;-45
2022/09/25 05:56:51;;;;;;;;;;;;;;;16.56;100.00;98747.16;5049983;28;19923;-45
2022/09/25 05:59:16;;;;;;;;;;;;;;;16.80;100.00;98738.78;5050036;28;19921;-45
2022/09/25 06:01:42;;;;;;;;;;;;;;;17.18;100.00;98730.38;5049673;28;19967;-45
2022/09/25 06:04:07;;;;;;;;;;;;;;;17.14;100.00;98727.13;5049918;28;19916;-45
2022/09/25 06:06:32;;;;;;;;;;;;;;;16.93;100.00;98731.91;5049980;28;19925;-45
2022/09/25 06:08:57;;;;;;;;;;;;;;;17.15;100.00;98728.78;5050010;28;19924;-45
2022/09/25 06:11:23;;;;;;;;;;;;;;;17.28;100.00;98726.22;5049702;28;19913;-45
2022/09/25 06:13:49;;;;;;;;;;;;;;;17.24;100.00;98724.75;5049624;28;19924;-44
2022/09/25 06:16:18;;;;;;;;;;;;;;;17.40;100.00;98717.63;5049937;28;20297;-45
2022/09/25 06:18:43;;;;;;;;;;;;;;;17.13;100.00;98715.88;5049736;28;20016;-45
2022/09/25 06:21:08;;;;;;;;;;;;;;;16.92;100.00;98725.03;5049569;28;19999;-45
2022/09/25 06:23:33;;;;;;;;;;;;;;;16.62;100.00;98735.53;5053469;28;19959;-45
2022/09/25 06:25:59;;;;;;;;;;;;;;;16.41;100.00;98742.88;5053780;28;19954;-45
2022/09/25 06:28:24;;;;;;;;;;;;;;;16.17;100.00;98748.59;5053754;28;19967;-45
2022/09/25 06:30:50;;;;;;;;;;;;;;;15.99;100.00;98754.88;5053217;28;19924;-45
2022/09/25 06:33:15;;;;;;;;;;;;;;;15.98;100.00;98763.56;5053504;28;19924;-44
2022/09/25 06:35:41;;;;;;;;;;;;;;;15.55;100.00;98768.59;5054462;28;20393;-44
2022/09/25 06:38:06;;;;;;;;;;;;;;;15.76;100.00;98777.81;5073734;28;19923;-45
2022/09/25 06:40:32;;;;;;;;;;;;;;;16.04;100.00;98774.44;5071886;28;19912;-44
2022/09/25 06:42:58;;;;;;;;;;;;;;;15.88;100.00;98782.28;5072303;28;19927;-45
2022/09/25 06:45:23;;;;;;;;;;;;;;;15.62;100.00;98775.09;5053352;28;20010;-45
2022/09/25 06:47:49;;;;;;;;;;;;;;;15.71;100.00;98787.59;5059488;28;20356;-45
2022/09/25 06:50:14;;;;;;;;;;;;;;;15.95;100.00;98781.94;5034604;28;20027;-45
2022/09/25 06:52:42;;;;;;;;;;;;;;;15.64;100.00;98783.63;5054367;28;19913;-45
2022/09/25 06:55:08;;;;;;;;;;;;;;;15.94;100.00;98790.66;5051755;28;19925;-45
2022/09/25 06:57:36;;;;;;;;;;;;;;;15.59;100.00;98785.66;5052323;28;19923;-45
2022/09/25 07:00:01;;;;;;;;;;;;;;;15.68;100.00;98795.53;5069296;28;19927;-44
2022/09/25 07:05:11;;;;;;;;;;;;;;;15.32;100.00;98807.03;5068362;28;19962;-45
2022/09/25 07:07:36;;;;;;;;;;;;;;;15.44;100.00;98803.78;5070732;28;19935;-45
2022/09/25 07:10:01;;;;;;;;;;;;;;;15.22;100.00;98806.69;5062086;28;19916;-44
2022/09/25 07:12:27;;;;;;;;;;;;;;;15.24;100.00;98801.44;5081349;28;19964;-45
2022/09/25 07:14:52;;;;;;;;;;;;;;;15.47;100.00;98811.38;5075526;28;19916;-45
2022/09/25 07:17:17;;;;;;;;;;;;;;;15.54;100.00;98809.28;5078889;28;20263;-45
2022/09/25 07:19:42;;;;;;;;;;;;;;;15.45;100.00;98804.59;5052467;28;19917;-45
2022/09/25 07:22:10;;;;;;;;;;;;;;;15.48;100.00;98810.44;5063585;28;19982;-46
2022/09/25 07:24:35;;;;;;;;;;;;;;;15.41;100.00;98814.31;5051706;28;20490;-45
2022/09/25 07:27:00;;;;;;;;;;;;;;;15.50;100.00;98809.53;5052790;28;19921;-45
2022/09/25 07:29:25;;;;;;;;;;;;;;;15.51;100.00;98808.59;5070841;28;19917;-45
2022/09/25 07:31:51;;;;;;;;;;;;;;;15.84;100.00;98808.53;5069940;28;19917;-45
2022/09/25 07:34:16;;;;;;;;;;;;;;;15.77;100.00;98807.19;5070843;28;19924;-45
2022/09/25 07:36:41;;;;;;;;;;;;;;;15.61;100.00;98812.38;5069587;28;19919;-46
2022/09/25 07:39:07;;;;;;;;;;;;;;;15.92;100.00;98813.25;5070138;28;19928;-45
2022/09/25 07:41:33;;;;;;;;;;;;;;;16.04;100.00;98802.19;5073128;28;19942;-45
2022/09/25 07:43:58;;;;;;;;;;;;;;;16.05;100.00;98799.47;5071222;28;19917;-45
2022/09/25 07:46:24;;;;;;;;;;;;;;;16.22;100.00;98797.69;5042420;28;19973;-45
2022/09/25 07:48:49;;;;;;;;;;;;;;;16.04;100.00;98791.81;5077507;28;19926;-46
2022/09/25 07:51:15;;;;;;;;;;;;;;;16.23;100.00;98796.75;5053922;28;20382;-45
2022/09/25 07:53:41;;;;;;;;;;;;;;;16.22;100.00;98790.72;5051362;28;19913;-46
2022/09/25 07:56:06;;;;;;;;;;;;;;;15.61;100.00;98791.63;5051899;28;19921;-46
2022/09/25 07:58:32;;;;;;;;;;;;;;;15.95;100.00;98797.53;5056215;28;19932;-45
2022/09/25 08:01:00;;;;;;;;;;;;;;;15.65;100.00;98795.72;5034029;28;19917;-45
2022/09/25 08:03:26;;;;;;;;;;;;;;;16.16;100.00;98801.47;5069440;28;20018;-45
2022/09/25 08:05:57;;;;;;;;;;;;;;;15.71;100.00;98802.34;5060344;28;20431;-45
2022/09/25 08:08:22;;;;;;;;;;;;;;;15.85;100.00;98803.25;5062204;28;19982;-46
2022/09/25 08:10:48;;;;;;;;;;;;;;;16.36;100.00;98799.47;5061337;28;19959;-46
2022/09/25 08:13:13;;;;;;;;;;;;;;;15.91;100.00;98801.22;5061483;28;19923;-45
2022/09/25 08:15:39;;;;;;;;;;;;;;;16.52;100.00;98797.66;5057960;28;19916;-45
2022/09/25 08:18:04;;;;;;;;;;;;;;;16.91;100.00;98797.03;5065190;28;19920;-45
2022/09/25 08:20:30;;;;;;;;;;;;;;;16.98;100.00;98783.66;5057929;28;19958;-46
2022/09/25 08:22:56;;;;;;;;;;;;;;;17.23;100.00;98782.97;5058646;28;19924;-45
2022/09/25 08:25:21;;;;;;;;;;;;;;;16.79;100.00;98783.91;5060913;28;20003;-46
2022/09/25 08:27:46;;;;;;;;;;;;;;;17.82;100.00;98774.88;5057897;28;20035;-45
2022/09/25 08:30:12;;;;;;;;;;;;;;;16.87;100.00;98777.31;5049086;28;20146;-45
2022/09/25 08:32:38;;;;;;;;;;;;;;;17.75;100.00;98779.63;5049065;28;19968;-54
2022/09/25 08:35:03;;;;;;;;;;;;;;;17.34;100.00;98768.31;5048237;28;19917;-45
2022/09/25 08:37:30;;;;;;;;;;;;;;;17.01;100.00;98773.88;5050369;28;19974;-45
2022/09/25 08:39:55;;;;;;;;;;;;;;;17.64;100.00;98782.09;5050431;28;19916;-45
2022/09/25 08:42:25;;;;;;;;;;;;;;;16.81;100.00;98776.84;5044999;28;20131;-45
2022/09/25 08:49:00;;;;;;;;;;;;;;;16.81;100.00;98784.66;5049494;28;20461;-45
2022/09/25 08:50:20;;;;;;;;;;;;;;;18.69;100.00;98760.34;5050783;28;19998;-45
2022/09/25 08:52:47;;;;;;;;;;;;;;;18.62;100.00;98749.50;5032196;28;19942;-46
2022/09/25 08:55:12;;;;;;;;;;;;;;;18.21;100.00;98760.16;5029769;28;19917;-44
2022/09/25 08:57:42;;;;;;;;;;;;;;;18.08;100.00;98765.34;5031324;28;20986;-46
2022/09/25 09:00:21;;;;;;;;;;;;;;;18.47;100.00;98761.81;5049575;28;19977;-46
2022/09/25 09:02:57;;;;;;;;;;;;;;;19.42;100.00;98749.09;5049170;28;20003;-45
2022/09/25 09:05:23;;;;;;;;;;;;;;;19.71;100.00;98743.56;5029072;28;19916;-46
2022/09/25 09:07:56;;;;;;;;;;;;;;;18.57;100.00;98747.22;5031038;28;20313;-46
2022/09/25 09:10:27;;;;;;;;;;;;;;;18.28;100.00;98751.81;5050305;28;20463;-45
2022/09/25 09:13:05;;;;;;;;;;;;;;;18.60;100.00;98757.41;5033343;28;19921;-47
2022/09/25 09:15:35;;;;;;;;;;;;;;;20.62;100.00;98738.41;5050603;28;19920;-45
2022/09/25 09:18:01;;;;;;;;;;;;;;;19.67;100.00;98744.72;5032924;28;19978;-45
2022/09/25 09:20:29;;;;;;;;;;;;;;;19.88;100.00;98740.53;5030856;28;19956;-45
2022/09/25 09:22:55;;;;;;;;;;;;;;;20.63;100.00;98737.47;5030381;28;20453;-46
2022/09/25 09:25:39;;;;;;;;;;;;;;;18.64;100.00;98750.22;5028983;28;19920;-45
2022/09/25 09:28:04;;;;;;;;;;;;;;;17.40;100.00;98759.28;5049893;28;19927;-47
2022/09/25 09:30:38;;;;;;;;;;;;;;;17.71;100.00;98770.34;5049619;28;19917;-46
2022/09/25 09:33:12;;;;;;;;;;;;;;;17.66;100.00;98760.22;5047407;28;19924;-46
2022/09/25 09:35:38;;;;;;;;;;;;;;;17.62;100.00;98766.56;5048687;28;20012;-46
2022/09/25 09:38:43;;;;;;;;;;;;;;;19.16;100.00;98748.38;5049055;28;20000;-46
2022/09/25 09:41:11;;;;;;;;;;;;;;;19.83;100.00;98734.81;4964934;28;20004;-46
2022/09/25 09:43:39;;;;;;;;;;;;;;;19.82;100.00;98720.09;4968364;28;20012;-46
2022/09/25 09:46:14;;;;;;;;;;;;;;;19.54;100.00;98732.53;5009229;28;19948;-46
2022/09/25 09:48:58;;;;;;;;;;;;;;;20.39;100.00;98721.00;5046883;28;19965;-46
2022/09/25 09:51:26;;;;;;;;;;;;;;;19.48;100.00;98732.13;5046054;28;19921;-46
2022/09/25 09:53:59;;;;;;;;;;;;;;;19.63;100.00;98731.84;5046998;28;19931;-47
2022/09/25 09:56:26;;;;;;;;;;;;;;;19.46;100.00;98729.66;5048792;28;19962;-46
2022/09/25 09:58:59;;;;;;;;;;;;;;;19.78;100.00;98729.94;5035900;28;19928;-45
2022/09/25 10:01:25;;;;;;;;;;;;;;;20.32;100.00;98733.75;5049867;28;20031;-47
2022/09/25 10:04:00;;;;;;;;;;;;;;;20.63;100.00;98721.75;5033106;28;20493;-46
2022/09/25 10:06:26;;;;;;;;;;;;;;;20.60;100.00;98722.00;5035794;28;19946;-45
2022/09/25 10:08:51;;;;;;;;;;;;;;;19.88;100.00;98722.22;5034365;28;19921;-46
2022/09/25 10:11:17;;;;;;;;;;;;;;;18.44;100.00;98719.47;5053017;28;20406;-45
2022/09/25 10:13:43;;;;;;;;;;;;;;;18.31;100.00;98727.28;5033664;28;20450;-45
2022/09/25 10:16:11;;;;;;;;;;;;;;;18.93;100.00;98731.72;5033630;28;19927;-45
2022/09/25 10:18:45;;;;;;;;;;;;;;;19.20;100.00;98714.13;5051164;28;19925;-46
2022/09/25 10:21:15;;;;;;;;;;;;;;;19.94;100.00;98713.94;5050872;28;19940;-45
2022/09/25 10:23:41;;;;;;;;;;;;;;;19.70;100.00;98705.31;5049257;28;19925;-46
2022/09/25 10:26:23;;;;;;;;;;;;;;;19.28;100.00;98710.94;5038200;28;19978;-46
2022/09/25 10:28:48;;;;;;;;;;;;;;;21.22;100.00;98704.88;5049962;28;19960;-46
2022/09/25 10:31:14;;;;;;;;;;;;;;;21.06;100.00;98693.97;5033026;28;20591;-48
2022/09/25 10:33:39;;;;;;;;;;;;;;;21.11;100.00;98697.06;5050057;28;19923;-47
2022/09/25 10:36:04;;;;;;;;;;;;;;;20.71;100.00;98691.53;5051064;28;19962;-47
2022/09/25 10:38:32;;;;;;;;;;;;;;;20.29;100.00;98707.81;5035878;28;20035;-46
2022/09/25 10:40:58;;;;;;;;;;;;;;;19.27;100.00;98714.47;5047945;28;20029;-46
2022/09/25 10:43:23;;;;;;;;;;;;;;;18.76;100.00;98715.44;5050940;28;20032;-47
2022/09/25 10:45:51;;;;;;;;;;;;;;;18.33;100.00;98717.59;5052086;28;20082;-45
2022/09/25 10:51:16;;;;;;;;;;;;;;;18.92;100.00;98727.47;5036374;28;20061;-46
2022/09/25 10:53:42;;;;;;;;;;;;;;;18.62;100.00;98712.97;5034168;28;20390;-45
2022/09/25 10:56:11;;;;;;;;;;;;;;;18.36;100.00;98720.84;5055144;28;20007;-46
2022/09/25 10:58:39;;;;;;;;;;;;;;;19.07;100.00;98713.31;5032242;28;20554;-46
2022/09/25 11:01:05;;;;;;;;;;;;;;;19.13;100.00;98712.88;5051780;28;19931;-46
2022/09/25 11:03:34;;;;;;;;;;;;;;;18.64;100.00;98705.88;5027499;28;19924;-45
2022/09/25 11:06:19;;;;;;;;;;;;;;;20.51;100.00;98691.28;5034674;28;20293;-46
2022/09/25 11:08:45;;;;;;;;;;;;;;;21.81;100.00;98681.81;5049918;28;20459;-47
2022/09/25 11:11:12;;;;;;;;;;;;;;;21.57;100.00;98682.03;5032028;28;19927;-47
2022/09/25 11:13:51;;;;;;;;;;;;;;;21.52;100.00;98677.16;5033702;28;20433;-47
2022/09/25 11:16:18;;;;;;;;;;;;;;;23.10;100.00;98675.97;5032910;28;20487;-47
2022/09/25 11:19:10;;;;;;;;;;;;;;;23.15;100.00;98663.28;5049204;28;20476;-47
2022/09/25 11:21:56;;;;;;;;;;;;;;;22.61;100.00;98665.34;5047392;28;20002;-47
2022/09/25 11:24:22;;;;;;;;;;;;;;;22.19;100.00;98664.59;5050662;28;19971;-47
2022/09/25 11:26:58;;;;;;;;;;;;;;;21.39;100.00;98677.31;5052511;28;19963;-49
2022/09/25 11:29:29;;;;;;;;;;;;;;;20.76;100.00;98664.06;5032213;28;19921;-47
2022/09/25 11:32:04;;;;;;;;;;;;;;;21.72;100.00;98673.72;5050564;28;19916;-46
2022/09/25 11:34:35;;;;;;;;;;;;;;;22.93;100.00;98656.44;5051928;28;19966;-47
2022/09/25 11:37:11;;;;;;;;;;;;;;;23.88;99.64;98645.25;5053187;28;19924;-47
2022/09/25 11:43:12;;;;;;;;;;;;;;;23.53;93.32;98635.31;5035137;28;19979;-47
2022/09/25 11:45:42;;;;;;;;;;;;;;;22.95;93.04;98647.47;5006970;28;20838;-48
2022/09/25 11:48:11;;;;;;;;;;;;;;;20.84;100.00;98661.66;5034636;28;19923;-49
2022/09/25 11:50:52;;;;;;;;;;;;;;;21.10;100.00;98656.13;5050315;28;19964;-46
2022/09/25 11:53:27;;;;;;;;;;;;;;;19.92;96.12;98647.88;5049789;28;20368;-47
2022/09/25 11:55:52;;;;;;;;;;;;;;;20.16;98.24;98655.66;5033275;28;20412;-47
2022/09/25 11:58:36;;;;;;;;;;;;;;;21.34;96.52;98642.81;5026351;28;20051;-47
2022/09/25 12:01:20;;;;;;;;;;;;;;;21.50;89.61;98629.31;5050776;28;19931;-46
2022/09/25 12:03:56;;;;;;;;;;;;;;;22.43;89.67;98625.78;5047253;28;19921;-47
2022/09/25 12:06:47;;;;;;;;;;;;;;;22.71;90.71;98628.63;5051368;28;19967;-48
2022/09/25 12:09:19;;;;;;;;;;;;;;;20.35;100.00;98665.50;5044200;28;19916;-48
2022/09/25 12:11:53;;;;;;;;;;;;;;;21.65;100.00;98649.00;5048519;28;20007;-47
2022/09/25 12:14:18;;;;;;;;;;;;;;;20.20;100.00;98664.88;5050051;28;20007;-47
2022/09/25 12:16:53;;;;;;;;;;;;;;;19.33;100.00;98671.44;5050674;28;20093;-47
2022/09/25 12:19:28;;;;;;;;;;;;;;;20.44;100.00;98659.56;5031895;28;19928;-47
2022/09/25 12:21:58;;;;;;;;;;;;;;;20.60;100.00;98653.16;5032027;28;19920;-46
2022/09/25 12:24:49;;;;;;;;;;;;;;;20.68;100.00;98650.75;5051121;28;19928;-47
2022/09/25 12:27:19;;;;;;;;;;;;;;;22.31;100.00;98632.13;5051138;28;20695;-46
2022/09/25 12:29:45;;;;;;;;;;;;;;;22.00;100.00;98626.84;5052428;28;19923;-46
2022/09/25 12:32:13;;;;;;;;;;;;;;;20.40;97.32;98631.97;5049537;28;19920;-47
2022/09/25 12:34:54;;;;;;;;;;;;;;;20.50;93.85;98620.78;5050935;28;20629;-47
2022/09/25 12:37:29;;;;;;;;;;;;;;;21.06;100.00;98633.75;5051575;28;19992;-46
2022/09/25 12:39:57;;;;;;;;;;;;;;;19.88;100.00;98637.78;5051801;28;19924;-47
2022/09/25 12:42:24;;;;;;;;;;;;;;;20.39;100.00;98634.69;5033638;28;19928;-46
2022/09/25 12:44:55;;;;;;;;;;;;;;;20.73;100.00;98627.66;5030993;28;19920;-46
2022/09/25 12:47:20;;;;;;;;;;;;;;;20.68;100.00;98640.28;5035499;28;19965;-47
2022/09/25 12:49:48;;;;;;;;;;;;;;;20.22;100.00;98641.25;5050070;28;20238;-46
2022/09/25 12:52:15;;;;;;;;;;;;;;;19.91;100.00;98625.31;5032568;28;19920;-46
2022/09/25 12:54:44;;;;;;;;;;;;;;;20.29;100.00;98616.28;5033507;28;20023;-49
2022/09/25 12:57:14;;;;;;;;;;;;;;;21.01;100.00;98620.22;5050116;28;19921;-47
2022/09/25 12:59:43;;;;;;;;;;;;;;;20.62;98.86;98601.53;5032483;28;19921;-47